sensor_id;sensor_type;location;lat;lon;timestamp;P1;durP1;ratioP1;P2;durP2;ratioP2
19593;SDS011;9944;48.240;16.478;2022-07-25T00:01:49;5.28;;;3.40;;
19593;SDS011;9944;48.240;16.478;2022-07-25T00:05:52;5.60;;;4.07;;
19593;SDS011;9944;48.240;16.478;2022-07-25T00:09:55;4.53;;;3.60;;
19593;SDS011;9944;48.240;16.478;2022-07-25T00:14:00;4.40;;;3.40;;
19593;SDS011;9944;48.240;16.478;2022-07-25T00:18:04;5.30;;;3.60;;
19593;SDS011;9944;48.240;16.478;2022-07-25T00:22:07;5.82;;;3.78;;
19593;SDS011;9944;48.240;16.478;2022-07-25T00:26:10;5.53;;;3.75;;
19593;SDS011;9944;48.240;16.478;2022-07-25T00:30:16;5.32;;;3.60;;
19593;SDS011;9944;48.240;16.478;2022-07-25T00:34:19;4.97;;;3.97;;
19593;SDS011;9944;48.240;16.478;2022-07-25T00:38:22;5.60;;;3.97;;
19593;SDS011;9944;48.240;16.478;2022-07-25T00:42:26;4.63;;;3.70;;
19593;SDS011;9944;48.240;16.478;2022-07-25T00:46:31;7.10;;;3.42;;
19593;SDS011;9944;48.240;16.478;2022-07-25T00:50:34;5.30;;;4.00;;
19593;SDS011;9944;48.240;16.478;2022-07-25T00:54:38;8.70;;;4.20;;
19593;SDS011;9944;48.240;16.478;2022-07-25T00:58:43;5.82;;;4.00;;
19593;SDS011;9944;48.240;16.478;2022-07-25T01:02:48;4.03;;;3.63;;
19593;SDS011;9944;48.240;16.478;2022-07-25T01:06:52;4.40;;;3.53;;
19593;SDS011;9944;48.240;16.478;2022-07-25T01:10:55;5.22;;;3.85;;
19593;SDS011;9944;48.240;16.478;2022-07-25T01:14:58;4.88;;;3.88;;
19593;SDS011;9944;48.240;16.478;2022-07-25T01:19:03;5.25;;;3.70;;
19593;SDS011;9944;48.240;16.478;2022-07-25T01:23:07;5.20;;;3.50;;
19593;SDS011;9944;48.240;16.478;2022-07-25T01:27:10;4.75;;;3.83;;
19593;SDS011;9944;48.240;16.478;2022-07-25T01:31:18;4.63;;;3.38;;
19593;SDS011;9944;48.240;16.478;2022-07-25T01:35:21;4.53;;;3.45;;
19593;SDS011;9944;48.240;16.478;2022-07-25T01:39:26;4.93;;;3.33;;
19593;SDS011;9944;48.240;16.478;2022-07-25T01:43:29;3.88;;;3.35;;
19593;SDS011;9944;48.240;16.478;2022-07-25T01:47:32;4.97;;;3.28;;
19593;SDS011;9944;48.240;16.478;2022-07-25T01:51:35;4.70;;;3.28;;
19593;SDS011;9944;48.240;16.478;2022-07-25T01:55:40;3.53;;;3.13;;
19593;SDS011;9944;48.240;16.478;2022-07-25T01:59:43;4.65;;;2.88;;
19593;SDS011;9944;48.240;16.478;2022-07-25T02:03:46;4.57;;;3.55;;
19593;SDS011;9944;48.240;16.478;2022-07-25T02:07:50;4.20;;;3.15;;
19593;SDS011;9944;48.240;16.478;2022-07-25T02:11:55;4.25;;;3.30;;
19593;SDS011;9944;48.240;16.478;2022-07-25T02:15:58;4.32;;;3.20;;
19593;SDS011;9944;48.240;16.478;2022-07-25T02:20:02;5.68;;;3.50;;
19593;SDS011;9944;48.240;16.478;2022-07-25T02:24:06;4.05;;;3.28;;
19593;SDS011;9944;48.240;16.478;2022-07-25T02:28:11;5.55;;;3.25;;
19593;SDS011;9944;48.240;16.478;2022-07-25T02:32:14;4.15;;;3.30;;
19593;SDS011;9944;48.240;16.478;2022-07-25T02:36:18;5.47;;;3.35;;
19593;SDS011;9944;48.240;16.478;2022-07-25T02:40:21;5.72;;;3.40;;
19593;SDS011;9944;48.240;16.478;2022-07-25T02:44:26;5.47;;;3.88;;
19593;SDS011;9944;48.240;16.478;2022-07-25T02:48:29;5.70;;;3.42;;
19593;SDS011;9944;48.240;16.478;2022-07-25T02:52:32;6.05;;;3.78;;
19593;SDS011;9944;48.240;16.478;2022-07-25T02:56:35;4.63;;;3.08;;
19593;SDS011;9944;48.240;16.478;2022-07-25T03:00:40;4.00;;;3.25;;
19593;SDS011;9944;48.240;16.478;2022-07-25T03:04:45;6.15;;;3.20;;
19593;SDS011;9944;48.240;16.478;2022-07-25T03:08:48;4.47;;;3.40;;
19593;SDS011;9944;48.240;16.478;2022-07-25T03:12:51;4.47;;;3.63;;
19593;SDS011;9944;48.240;16.478;2022-07-25T03:16:56;3.90;;;3.10;;
19593;SDS011;9944;48.240;16.478;2022-07-25T03:20:59;4.88;;;3.85;;
19593;SDS011;9944;48.240;16.478;2022-07-25T03:25:03;5.32;;;3.97;;
19593;SDS011;9944;48.240;16.478;2022-07-25T03:29:16;4.03;;;3.25;;
19593;SDS011;9944;48.240;16.478;2022-07-25T03:33:21;5.03;;;3.75;;
19593;SDS011;9944;48.240;16.478;2022-07-25T03:37:24;5.93;;;3.70;;
19593;SDS011;9944;48.240;16.478;2022-07-25T03:41:28;4.40;;;3.70;;
19593;SDS011;9944;48.240;16.478;2022-07-25T03:45:31;6.57;;;3.85;;
19593;SDS011;9944;48.240;16.478;2022-07-25T03:49:36;5.03;;;3.67;;
19593;SDS011;9944;48.240;16.478;2022-07-25T03:53:40;4.57;;;3.67;;
19593;SDS011;9944;48.240;16.478;2022-07-25T03:58:00;6.30;;;3.60;;
19593;SDS011;9944;48.240;16.478;2022-07-25T04:02:03;4.80;;;3.63;;
19593;SDS011;9944;48.240;16.478;2022-07-25T04:06:08;4.18;;;3.35;;
19593;SDS011;9944;48.240;16.478;2022-07-25T04:10:11;8.10;;;3.63;;
19593;SDS011;9944;48.240;16.478;2022-07-25T04:14:15;5.30;;;3.53;;
19593;SDS011;9944;48.240;16.478;2022-07-25T04:18:18;5.60;;;3.88;;
19593;SDS011;9944;48.240;16.478;2022-07-25T04:22:29;5.75;;;3.72;;
19593;SDS011;9944;48.240;16.478;2022-07-25T04:26:32;5.43;;;3.83;;
19593;SDS011;9944;48.240;16.478;2022-07-25T04:30:35;4.93;;;4.00;;
19593;SDS011;9944;48.240;16.478;2022-07-25T04:34:39;6.60;;;4.03;;
19593;SDS011;9944;48.240;16.478;2022-07-25T04:38:45;7.13;;;3.80;;
19593;SDS011;9944;48.240;16.478;2022-07-25T04:42:48;4.47;;;3.50;;
19593;SDS011;9944;48.240;16.478;2022-07-25T04:46:52;5.65;;;3.33;;
19593;SDS011;9944;48.240;16.478;2022-07-25T04:50:55;7.53;;;3.50;;
19593;SDS011;9944;48.240;16.478;2022-07-25T04:55:00;5.22;;;3.00;;
19593;SDS011;9944;48.240;16.478;2022-07-25T04:59:04;5.28;;;3.30;;
19593;SDS011;9944;48.240;16.478;2022-07-25T05:03:07;5.18;;;3.35;;
19593;SDS011;9944;48.240;16.478;2022-07-25T05:07:11;5.28;;;3.63;;
19593;SDS011;9944;48.240;16.478;2022-07-25T05:11:16;5.40;;;3.50;;
19593;SDS011;9944;48.240;16.478;2022-07-25T05:15:19;6.43;;;3.45;;
19593;SDS011;9944;48.240;16.478;2022-07-25T05:19:22;6.60;;;3.65;;
19593;SDS011;9944;48.240;16.478;2022-07-25T05:23:26;5.72;;;3.65;;
19593;SDS011;9944;48.240;16.478;2022-07-25T05:27:31;6.85;;;3.78;;
19593;SDS011;9944;48.240;16.478;2022-07-25T05:31:34;7.68;;;4.03;;
19593;SDS011;9944;48.240;16.478;2022-07-25T05:35:39;5.38;;;4.13;;
19593;SDS011;9944;48.240;16.478;2022-07-25T05:39:42;7.93;;;4.55;;
19593;SDS011;9944;48.240;16.478;2022-07-25T05:43:47;5.35;;;3.88;;
19593;SDS011;9944;48.240;16.478;2022-07-25T05:47:50;9.57;;;4.50;;
19593;SDS011;9944;48.240;16.478;2022-07-25T05:51:53;6.97;;;3.90;;
19593;SDS011;9944;48.240;16.478;2022-07-25T05:55:57;5.15;;;4.20;;
19593;SDS011;9944;48.240;16.478;2022-07-25T06:00:02;5.10;;;4.25;;
19593;SDS011;9944;48.240;16.478;2022-07-25T06:04:06;4.88;;;4.15;;
19593;SDS011;9944;48.240;16.478;2022-07-25T06:08:10;9.68;;;4.40;;
19593;SDS011;9944;48.240;16.478;2022-07-25T06:12:13;6.70;;;3.92;;
19593;SDS011;9944;48.240;16.478;2022-07-25T06:16:19;5.22;;;3.88;;
19593;SDS011;9944;48.240;16.478;2022-07-25T06:20:22;4.88;;;3.75;;
19593;SDS011;9944;48.240;16.478;2022-07-25T06:24:25;4.40;;;3.22;;
19593;SDS011;9944;48.240;16.478;2022-07-25T06:28:29;6.00;;;3.75;;
19593;SDS011;9944;48.240;16.478;2022-07-25T06:32:33;3.83;;;3.15;;
19593;SDS011;9944;48.240;16.478;2022-07-25T06:36:36;6.63;;;2.78;;
19593;SDS011;9944;48.240;16.478;2022-07-25T06:40:39;3.88;;;2.75;;
19593;SDS011;9944;48.240;16.478;2022-07-25T06:44:43;3.13;;;2.83;;
19593;SDS011;9944;48.240;16.478;2022-07-25T06:48:48;2.67;;;2.38;;
19593;SDS011;9944;48.240;16.478;2022-07-25T06:52:51;5.47;;;2.30;;
19593;SDS011;9944;48.240;16.478;2022-07-25T06:56:55;4.38;;;2.40;;
19593;SDS011;9944;48.240;16.478;2022-07-25T07:00:58;4.18;;;2.45;;
19593;SDS011;9944;48.240;16.478;2022-07-25T07:05:04;2.60;;;2.13;;
19593;SDS011;9944;48.240;16.478;2022-07-25T07:09:08;2.55;;;2.20;;
19593;SDS011;9944;48.240;16.478;2022-07-25T07:13:12;2.25;;;2.05;;
19593;SDS011;9944;48.240;16.478;2022-07-25T07:17:24;2.05;;;1.85;;
19593;SDS011;9944;48.240;16.478;2022-07-25T07:21:29;3.63;;;2.20;;
19593;SDS011;9944;48.240;16.478;2022-07-25T07:25:32;2.15;;;1.95;;
19593;SDS011;9944;48.240;16.478;2022-07-25T07:29:36;2.95;;;2.13;;
19593;SDS011;9944;48.240;16.478;2022-07-25T07:33:39;2.42;;;1.95;;
19593;SDS011;9944;48.240;16.478;2022-07-25T07:37:44;4.60;;;1.90;;
19593;SDS011;9944;48.240;16.478;2022-07-25T07:41:48;2.40;;;1.85;;
19593;SDS011;9944;48.240;16.478;2022-07-25T07:45:54;2.38;;;2.17;;
19593;SDS011;9944;48.240;16.478;2022-07-25T07:49:59;2.22;;;1.90;;
19593;SDS011;9944;48.240;16.478;2022-07-25T07:54:04;3.28;;;1.80;;
19593;SDS011;9944;48.240;16.478;2022-07-25T07:58:25;2.42;;;1.98;;
19593;SDS011;9944;48.240;16.478;2022-07-25T08:02:28;2.03;;;1.80;;
19593;SDS011;9944;48.240;16.478;2022-07-25T08:06:32;3.20;;;1.85;;
19593;SDS011;9944;48.240;16.478;2022-07-25T08:10:38;2.80;;;1.80;;
19593;SDS011;9944;48.240;16.478;2022-07-25T08:14:43;1.70;;;1.60;;
19593;SDS011;9944;48.240;16.478;2022-07-25T08:18:46;5.07;;;1.73;;
19593;SDS011;9944;48.240;16.478;2022-07-25T08:22:49;2.65;;;2.20;;
19593;SDS011;9944;48.240;16.478;2022-07-25T08:26:58;3.03;;;1.92;;
19593;SDS011;9944;48.240;16.478;2022-07-25T08:31:01;2.35;;;2.00;;
19593;SDS011;9944;48.240;16.478;2022-07-25T08:35:05;2.00;;;1.80;;
19593;SDS011;9944;48.240;16.478;2022-07-25T08:39:12;2.55;;;2.00;;
19593;SDS011;9944;48.240;16.478;2022-07-25T08:43:16;1.98;;;1.80;;
19593;SDS011;9944;48.240;16.478;2022-07-25T08:47:21;3.63;;;2.05;;
19593;SDS011;9944;48.240;16.478;2022-07-25T08:51:24;2.92;;;2.15;;
19593;SDS011;9944;48.240;16.478;2022-07-25T08:55:28;2.10;;;1.90;;
19593;SDS011;9944;48.240;16.478;2022-07-25T08:59:33;5.35;;;2.45;;
19593;SDS011;9944;48.240;16.478;2022-07-25T09:03:36;8.65;;;2.10;;
19593;SDS011;9944;48.240;16.478;2022-07-25T09:07:40;2.50;;;2.30;;
19593;SDS011;9944;48.240;16.478;2022-07-25T09:11:43;2.20;;;2.00;;
19593;SDS011;9944;48.240;16.478;2022-07-25T09:15:49;2.88;;;2.55;;
19593;SDS011;9944;48.240;16.478;2022-07-25T09:19:54;3.13;;;2.80;;
19593;SDS011;9944;48.240;16.478;2022-07-25T09:24:06;2.90;;;2.60;;
19593;SDS011;9944;48.240;16.478;2022-07-25T09:28:14;2.78;;;2.47;;
19593;SDS011;9944;48.240;16.478;2022-07-25T09:32:20;3.42;;;2.50;;
19593;SDS011;9944;48.240;16.478;2022-07-25T09:36:25;2.97;;;2.60;;
19593;SDS011;9944;48.240;16.478;2022-07-25T09:40:29;4.20;;;2.70;;
19593;SDS011;9944;48.240;16.478;2022-07-25T09:44:32;3.75;;;2.60;;
19593;SDS011;9944;48.240;16.478;2022-07-25T09:48:38;3.30;;;2.72;;
19593;SDS011;9944;48.240;16.478;2022-07-25T09:52:46;3.03;;;2.70;;
19593;SDS011;9944;48.240;16.478;2022-07-25T09:56:49;3.72;;;2.63;;
19593;SDS011;9944;48.240;16.478;2022-07-25T10:00:55;3.22;;;2.58;;
19593;SDS011;9944;48.240;16.478;2022-07-25T10:05:07;4.78;;;2.83;;
19593;SDS011;9944;48.240;16.478;2022-07-25T10:09:15;6.75;;;2.88;;
19593;SDS011;9944;48.240;16.478;2022-07-25T10:13:27;4.88;;;3.45;;
19593;SDS011;9944;48.240;16.478;2022-07-25T10:17:31;4.22;;;3.03;;
19593;SDS011;9944;48.240;16.478;2022-07-25T10:21:37;3.72;;;3.17;;
19593;SDS011;9944;48.240;16.478;2022-07-25T10:25:40;4.18;;;2.88;;
19593;SDS011;9944;48.240;16.478;2022-07-25T10:29:51;5.07;;;3.30;;
19593;SDS011;9944;48.240;16.478;2022-07-25T10:33:56;3.50;;;3.20;;
19593;SDS011;9944;48.240;16.478;2022-07-25T10:38:02;4.57;;;3.13;;
19593;SDS011;9944;48.240;16.478;2022-07-25T10:42:07;3.72;;;3.40;;
19593;SDS011;9944;48.240;16.478;2022-07-25T10:46:16;5.88;;;3.40;;
19593;SDS011;9944;48.240;16.478;2022-07-25T10:50:23;5.68;;;3.80;;
19593;SDS011;9944;48.240;16.478;2022-07-25T10:54:52;4.00;;;3.50;;
19593;SDS011;9944;48.240;16.478;2022-07-25T10:58:59;4.35;;;3.35;;
19593;SDS011;9944;48.240;16.478;2022-07-25T11:03:03;5.45;;;3.47;;
19593;SDS011;9944;48.240;16.478;2022-07-25T11:07:07;3.58;;;3.28;;
19593;SDS011;9944;48.240;16.478;2022-07-25T11:11:12;4.18;;;3.25;;
19593;SDS011;9944;48.240;16.478;2022-07-25T11:15:15;3.45;;;3.15;;
19593;SDS011;9944;48.240;16.478;2022-07-25T11:19:25;4.20;;;3.80;;
19593;SDS011;9944;48.240;16.478;2022-07-25T11:23:30;3.70;;;3.15;;
19593;SDS011;9944;48.240;16.478;2022-07-25T11:27:35;5.18;;;2.90;;
19593;SDS011;9944;48.240;16.478;2022-07-25T11:31:38;4.15;;;3.22;;
19593;SDS011;9944;48.240;16.478;2022-07-25T11:35:42;3.97;;;3.40;;
19593;SDS011;9944;48.240;16.478;2022-07-25T11:39:46;3.42;;;2.95;;
19593;SDS011;9944;48.240;16.478;2022-07-25T11:43:51;4.00;;;3.00;;
19593;SDS011;9944;48.240;16.478;2022-07-25T11:48:01;3.67;;;3.00;;
19593;SDS011;9944;48.240;16.478;2022-07-25T11:52:06;3.88;;;2.78;;
19593;SDS011;9944;48.240;16.478;2022-07-25T11:56:21;3.28;;;2.90;;
19593;SDS011;9944;48.240;16.478;2022-07-25T12:00:47;3.30;;;2.80;;
19593;SDS011;9944;48.240;16.478;2022-07-25T12:04:55;3.28;;;2.75;;
19593;SDS011;9944;48.240;16.478;2022-07-25T12:09:08;3.33;;;2.83;;
19593;SDS011;9944;48.240;16.478;2022-07-25T12:13:22;3.17;;;2.88;;
19593;SDS011;9944;48.240;16.478;2022-07-25T12:17:28;3.90;;;3.10;;
19593;SDS011;9944;48.240;16.478;2022-07-25T12:21:32;4.00;;;3.17;;
19593;SDS011;9944;48.240;16.478;2022-07-25T12:25:36;3.70;;;3.03;;
19593;SDS011;9944;48.240;16.478;2022-07-25T12:29:40;3.20;;;2.90;;
19593;SDS011;9944;48.240;16.478;2022-07-25T12:33:45;3.53;;;2.90;;
19593;SDS011;9944;48.240;16.478;2022-07-25T12:37:49;3.88;;;2.97;;
19593;SDS011;9944;48.240;16.478;2022-07-25T12:41:53;3.92;;;2.92;;
19593;SDS011;9944;48.240;16.478;2022-07-25T12:45:56;3.28;;;2.80;;
19593;SDS011;9944;48.240;16.478;2022-07-25T12:50:01;3.70;;;3.25;;
19593;SDS011;9944;48.240;16.478;2022-07-25T12:54:05;3.00;;;2.70;;
19593;SDS011;9944;48.240;16.478;2022-07-25T12:58:09;3.25;;;2.95;;
19593;SDS011;9944;48.240;16.478;2022-07-25T13:02:15;3.10;;;2.85;;
19593;SDS011;9944;48.240;16.478;2022-07-25T13:06:20;3.33;;;3.03;;
19593;SDS011;9944;48.240;16.478;2022-07-25T13:10:24;4.07;;;3.35;;
19593;SDS011;9944;48.240;16.478;2022-07-25T13:14:27;4.43;;;3.38;;
19593;SDS011;9944;48.240;16.478;2022-07-25T13:18:30;3.85;;;3.10;;
19593;SDS011;9944;48.240;16.478;2022-07-25T13:22:35;3.40;;;3.10;;
19593;SDS011;9944;48.240;16.478;2022-07-25T13:26:39;3.65;;;3.10;;
19593;SDS011;9944;48.240;16.478;2022-07-25T13:30:42;8.65;;;3.00;;
19593;SDS011;9944;48.240;16.478;2022-07-25T13:34:45;4.40;;;2.75;;
19593;SDS011;9944;48.240;16.478;2022-07-25T13:38:50;3.42;;;2.90;;
19593;SDS011;9944;48.240;16.478;2022-07-25T13:42:53;3.50;;;3.15;;
19593;SDS011;9944;48.240;16.478;2022-07-25T13:46:56;5.75;;;3.20;;
19593;SDS011;9944;48.240;16.478;2022-07-25T13:51:00;3.50;;;3.08;;
19593;SDS011;9944;48.240;16.478;2022-07-25T13:55:05;3.25;;;2.95;;
19593;SDS011;9944;48.240;16.478;2022-07-25T13:59:10;4.72;;;3.42;;
19593;SDS011;9944;48.240;16.478;2022-07-25T14:03:21;2.85;;;2.60;;
19593;SDS011;9944;48.240;16.478;2022-07-25T14:07:24;3.80;;;3.13;;
19593;SDS011;9944;48.240;16.478;2022-07-25T14:11:29;3.65;;;3.20;;
19593;SDS011;9944;48.240;16.478;2022-07-25T14:15:32;3.78;;;3.15;;
19593;SDS011;9944;48.240;16.478;2022-07-25T14:19:35;4.03;;;2.90;;
19593;SDS011;9944;48.240;16.478;2022-07-25T14:23:39;3.28;;;2.97;;
19593;SDS011;9944;48.240;16.478;2022-07-25T14:27:43;3.35;;;3.05;;
19593;SDS011;9944;48.240;16.478;2022-07-25T14:31:46;3.38;;;3.08;;
19593;SDS011;9944;48.240;16.478;2022-07-25T14:35:50;4.05;;;3.17;;
19593;SDS011;9944;48.240;16.478;2022-07-25T14:39:53;5.07;;;3.30;;
19593;SDS011;9944;48.240;16.478;2022-07-25T14:43:58;3.88;;;3.50;;
19593;SDS011;9944;48.240;16.478;2022-07-25T14:48:01;3.25;;;2.50;;
19593;SDS011;9944;48.240;16.478;2022-07-25T14:52:04;5.55;;;3.17;;
19593;SDS011;9944;48.240;16.478;2022-07-25T14:56:08;3.67;;;3.25;;
19593;SDS011;9944;48.240;16.478;2022-07-25T15:00:13;4.47;;;2.97;;
19593;SDS011;9944;48.240;16.478;2022-07-25T15:04:17;3.10;;;2.70;;
19593;SDS011;9944;48.240;16.478;2022-07-25T15:08:22;4.13;;;3.10;;
19593;SDS011;9944;48.240;16.478;2022-07-25T15:12:25;3.40;;;3.10;;
19593;SDS011;9944;48.240;16.478;2022-07-25T15:16:30;3.58;;;2.97;;
19593;SDS011;9944;48.240;16.478;2022-07-25T15:20:33;4.80;;;3.15;;
19593;SDS011;9944;48.240;16.478;2022-07-25T15:24:37;3.28;;;2.97;;
19593;SDS011;9944;48.240;16.478;2022-07-25T15:29:00;3.72;;;3.35;;
19593;SDS011;9944;48.240;16.478;2022-07-25T15:33:04;4.40;;;3.47;;
19593;SDS011;9944;48.240;16.478;2022-07-25T15:37:08;4.05;;;3.30;;
19593;SDS011;9944;48.240;16.478;2022-07-25T15:41:12;3.55;;;3.22;;
19593;SDS011;9944;48.240;16.478;2022-07-25T15:45:15;3.30;;;3.00;;
19593;SDS011;9944;48.240;16.478;2022-07-25T15:49:38;3.55;;;3.20;;
19593;SDS011;9944;48.240;16.478;2022-07-25T15:53:41;3.80;;;2.97;;
19593;SDS011;9944;48.240;16.478;2022-07-25T15:57:44;5.05;;;3.30;;
19593;SDS011;9944;48.240;16.478;2022-07-25T16:01:48;4.78;;;3.42;;
19593;SDS011;9944;48.240;16.478;2022-07-25T16:05:52;3.38;;;3.08;;
19593;SDS011;9944;48.240;16.478;2022-07-25T16:09:57;4.00;;;3.35;;
19593;SDS011;9944;48.240;16.478;2022-07-25T16:14:00;3.75;;;3.35;;
19593;SDS011;9944;48.240;16.478;2022-07-25T16:18:03;3.60;;;3.20;;
19593;SDS011;9944;48.240;16.478;2022-07-25T16:22:08;3.80;;;2.85;;
19593;SDS011;9944;48.240;16.478;2022-07-25T16:26:12;4.28;;;3.30;;
19593;SDS011;9944;48.240;16.478;2022-07-25T16:30:16;5.80;;;3.10;;
19593;SDS011;9944;48.240;16.478;2022-07-25T16:34:19;4.03;;;3.22;;
19593;SDS011;9944;48.240;16.478;2022-07-25T16:38:31;4.65;;;3.25;;
19593;SDS011;9944;48.240;16.478;2022-07-25T16:42:34;4.07;;;3.40;;
19593;SDS011;9944;48.240;16.478;2022-07-25T16:46:39;3.70;;;3.30;;
19593;SDS011;9944;48.240;16.478;2022-07-25T16:50:42;3.90;;;3.50;;
19593;SDS011;9944;48.240;16.478;2022-07-25T16:54:47;4.22;;;3.63;;
19593;SDS011;9944;48.240;16.478;2022-07-25T16:58:51;5.40;;;3.50;;
19593;SDS011;9944;48.240;16.478;2022-07-25T17:02:54;3.30;;;3.00;;
19593;SDS011;9944;48.240;16.478;2022-07-25T17:06:57;4.28;;;3.63;;
19593;SDS011;9944;48.240;16.478;2022-07-25T17:11:02;6.28;;;3.50;;
19593;SDS011;9944;48.240;16.478;2022-07-25T17:15:07;4.45;;;3.50;;
19593;SDS011;9944;48.240;16.478;2022-07-25T17:19:11;6.03;;;3.30;;
19593;SDS011;9944;48.240;16.478;2022-07-25T17:23:14;4.63;;;3.30;;
19593;SDS011;9944;48.240;16.478;2022-07-25T17:27:19;5.03;;;3.25;;
19593;SDS011;9944;48.240;16.478;2022-07-25T17:31:22;4.18;;;3.47;;
19593;SDS011;9944;48.240;16.478;2022-07-25T17:35:26;6.95;;;3.65;;
19593;SDS011;9944;48.240;16.478;2022-07-25T17:39:29;4.10;;;3.67;;
19593;SDS011;9944;48.240;16.478;2022-07-25T17:43:35;4.43;;;3.88;;
19593;SDS011;9944;48.240;16.478;2022-07-25T17:47:38;4.85;;;3.78;;
19593;SDS011;9944;48.240;16.478;2022-07-25T17:51:42;4.40;;;3.72;;
19593;SDS011;9944;48.240;16.478;2022-07-25T17:55:45;4.40;;;3.67;;
19593;SDS011;9944;48.240;16.478;2022-07-25T17:59:50;4.93;;;3.63;;
19593;SDS011;9944;48.240;16.478;2022-07-25T18:03:53;4.40;;;3.78;;
19593;SDS011;9944;48.240;16.478;2022-07-25T18:07:56;5.28;;;3.78;;
19593;SDS011;9944;48.240;16.478;2022-07-25T18:11:59;4.53;;;3.45;;
19593;SDS011;9944;48.240;16.478;2022-07-25T18:16:04;4.53;;;3.85;;
19593;SDS011;9944;48.240;16.478;2022-07-25T18:20:10;5.80;;;3.97;;
19593;SDS011;9944;48.240;16.478;2022-07-25T18:24:14;5.00;;;4.03;;
19593;SDS011;9944;48.240;16.478;2022-07-25T18:28:17;4.43;;;4.00;;
19593;SDS011;9944;48.240;16.478;2022-07-25T18:32:22;4.57;;;3.75;;
19593;SDS011;9944;48.240;16.478;2022-07-25T18:36:25;4.88;;;3.83;;
19593;SDS011;9944;48.240;16.478;2022-07-25T18:40:30;4.55;;;3.70;;
19593;SDS011;9944;48.240;16.478;2022-07-25T18:44:33;9.07;;;3.78;;
19593;SDS011;9944;48.240;16.478;2022-07-25T18:48:40;5.03;;;3.80;;
19593;SDS011;9944;48.240;16.478;2022-07-25T18:52:43;5.15;;;4.22;;
19593;SDS011;9944;48.240;16.478;2022-07-25T18:56:47;4.25;;;3.85;;
19593;SDS011;9944;48.240;16.478;2022-07-25T19:00:50;4.80;;;4.10;;
19593;SDS011;9944;48.240;16.478;2022-07-25T19:04:55;4.70;;;3.97;;
19593;SDS011;9944;48.240;16.478;2022-07-25T19:08:58;5.90;;;4.00;;
19593;SDS011;9944;48.240;16.478;2022-07-25T19:13:02;8.05;;;4.50;;
19593;SDS011;9944;48.240;16.478;2022-07-25T19:17:05;4.30;;;3.90;;
19593;SDS011;9944;48.240;16.478;2022-07-25T19:21:09;4.90;;;3.70;;
19593;SDS011;9944;48.240;16.478;2022-07-25T19:25:12;5.43;;;3.72;;
19593;SDS011;9944;48.240;16.478;2022-07-25T19:29:16;5.95;;;4.00;;
19593;SDS011;9944;48.240;16.478;2022-07-25T19:33:19;5.78;;;4.07;;
19593;SDS011;9944;48.240;16.478;2022-07-25T19:37:24;4.88;;;3.80;;
19593;SDS011;9944;48.240;16.478;2022-07-25T19:41:27;6.47;;;4.13;;
19593;SDS011;9944;48.240;16.478;2022-07-25T19:45:31;5.65;;;4.38;;
19593;SDS011;9944;48.240;16.478;2022-07-25T19:49:35;5.38;;;3.92;;
19593;SDS011;9944;48.240;16.478;2022-07-25T19:53:41;5.20;;;3.90;;
19593;SDS011;9944;48.240;16.478;2022-07-25T19:57:44;4.70;;;3.90;;
19593;SDS011;9944;48.240;16.478;2022-07-25T20:01:47;4.25;;;3.80;;
19593;SDS011;9944;48.240;16.478;2022-07-25T20:05:50;3.92;;;3.30;;
19593;SDS011;9944;48.240;16.478;2022-07-25T20:09:55;4.28;;;3.47;;
19593;SDS011;9944;48.240;16.478;2022-07-25T20:13:58;5.30;;;4.15;;
19593;SDS011;9944;48.240;16.478;2022-07-25T20:18:02;5.32;;;4.07;;
19593;SDS011;9944;48.240;16.478;2022-07-25T20:22:06;3.97;;;3.58;;
19593;SDS011;9944;48.240;16.478;2022-07-25T20:26:11;4.53;;;3.75;;
19593;SDS011;9944;48.240;16.478;2022-07-25T20:30:14;5.65;;;3.83;;
19593;SDS011;9944;48.240;16.478;2022-07-25T20:34:18;5.82;;;3.70;;
19593;SDS011;9944;48.240;16.478;2022-07-25T20:38:22;4.72;;;4.07;;
19593;SDS011;9944;48.240;16.478;2022-07-25T20:42:30;3.95;;;3.55;;
19593;SDS011;9944;48.240;16.478;2022-07-25T20:46:33;4.65;;;3.60;;
19593;SDS011;9944;48.240;16.478;2022-07-25T20:50:37;3.83;;;3.42;;
19593;SDS011;9944;48.240;16.478;2022-07-25T20:54:40;5.28;;;3.95;;
19593;SDS011;9944;48.240;16.478;2022-07-25T20:58:45;4.03;;;3.55;;
19593;SDS011;9944;48.240;16.478;2022-07-25T21:02:49;5.80;;;3.85;;
19593;SDS011;9944;48.240;16.478;2022-07-25T21:06:52;4.47;;;3.88;;
19593;SDS011;9944;48.240;16.478;2022-07-25T21:10:57;5.65;;;3.38;;
19593;SDS011;9944;48.240;16.478;2022-07-25T21:15:02;4.25;;;3.85;;
19593;SDS011;9944;48.240;16.478;2022-07-25T21:19:06;5.28;;;4.13;;
19593;SDS011;9944;48.240;16.478;2022-07-25T21:23:09;4.80;;;4.10;;
19593;SDS011;9944;48.240;16.478;2022-07-25T21:27:13;5.30;;;3.70;;
19593;SDS011;9944;48.240;16.478;2022-07-25T21:31:17;4.53;;;3.80;;
19593;SDS011;9944;48.240;16.478;2022-07-25T21:35:21;4.35;;;3.95;;
19593;SDS011;9944;48.240;16.478;2022-07-25T21:39:24;4.53;;;3.83;;
19593;SDS011;9944;48.240;16.478;2022-07-25T21:43:28;4.95;;;3.80;;
19593;SDS011;9944;48.240;16.478;2022-07-25T21:47:33;5.10;;;4.20;;
19593;SDS011;9944;48.240;16.478;2022-07-25T21:51:36;4.85;;;3.83;;
19593;SDS011;9944;48.240;16.478;2022-07-25T21:55:41;4.60;;;3.83;;
19593;SDS011;9944;48.240;16.478;2022-07-25T21:59:44;6.18;;;3.85;;
19593;SDS011;9944;48.240;16.478;2022-07-25T22:03:49;6.63;;;4.20;;
19593;SDS011;9944;48.240;16.478;2022-07-25T22:07:53;5.72;;;4.45;;
19593;SDS011;9944;48.240;16.478;2022-07-25T22:11:57;5.30;;;4.40;;
19593;SDS011;9944;48.240;16.478;2022-07-25T22:16:00;6.20;;;4.53;;
19593;SDS011;9944;48.240;16.478;2022-07-25T22:20:06;6.38;;;4.53;;
19593;SDS011;9944;48.240;16.478;2022-07-25T22:24:10;6.05;;;4.18;;
19593;SDS011;9944;48.240;16.478;2022-07-25T22:28:14;4.78;;;4.05;;
19593;SDS011;9944;48.240;16.478;2022-07-25T22:32:17;6.28;;;4.53;;
19593;SDS011;9944;48.240;16.478;2022-07-25T22:36:21;6.10;;;4.25;;
19593;SDS011;9944;48.240;16.478;2022-07-25T22:40:25;6.20;;;4.20;;
19593;SDS011;9944;48.240;16.478;2022-07-25T22:44:28;5.07;;;4.05;;
19593;SDS011;9944;48.240;16.478;2022-07-25T22:48:31;5.03;;;4.35;;
19593;SDS011;9944;48.240;16.478;2022-07-25T22:52:36;4.88;;;4.20;;
19593;SDS011;9944;48.240;16.478;2022-07-25T22:56:39;5.03;;;4.13;;
19593;SDS011;9944;48.240;16.478;2022-07-25T23:00:42;7.18;;;4.30;;
19593;SDS011;9944;48.240;16.478;2022-07-25T23:04:46;5.03;;;4.30;;
19593;SDS011;9944;48.240;16.478;2022-07-25T23:08:50;6.22;;;4.60;;
19593;SDS011;9944;48.240;16.478;2022-07-25T23:12:54;4.75;;;4.20;;
19593;SDS011;9944;48.240;16.478;2022-07-25T23:16:57;7.53;;;4.65;;
19593;SDS011;9944;48.240;16.478;2022-07-25T23:21:20;6.18;;;4.70;;
19593;SDS011;9944;48.240;16.478;2022-07-25T23:25:25;5.05;;;3.90;;
19593;SDS011;9944;48.240;16.478;2022-07-25T23:29:28;5.18;;;4.03;;
19593;SDS011;9944;48.240;16.478;2022-07-25T23:33:31;4.88;;;4.28;;
19593;SDS011;9944;48.240;16.478;2022-07-25T23:37:35;5.10;;;4.07;;
19593;SDS011;9944;48.240;16.478;2022-07-25T23:41:39;5.93;;;4.05;;
19593;SDS011;9944;48.240;16.478;2022-07-25T23:45:42;5.32;;;4.30;;
19593;SDS011;9944;48.240;16.478;2022-07-25T23:49:48;5.15;;;4.28;;
19593;SDS011;9944;48.240;16.478;2022-07-25T23:53:51;5.85;;;4.20;;
19593;SDS011;9944;48.240;16.478;2022-07-25T23:57:56;6.47;;;4.35;;
